Terminal Aerodrome Forecast
Issued by NWS Denver/Boulder, CO

Home | Current Version | Previous Version | Text Only | Print | Product List | Glossary On
Versions: 1 2 3 4 5 6 7 8 9 10 11 12 13 14 15 16 17 18 19 20 21 22 23 24 25 26 27 28 29 30 31 32 33 34 35 36 37 38 39 40 41 42 43 44 45 46 47 48 49 50
000
FTUS45 KBOU 270520
TAFDEN
TAF
KDEN 270520Z 2706/2812 19009KT P6SM SCT100 BKN200
     FM270900 20010KT P6SM FEW120 SCT200
     FM271400 VRB05KT P6SM FEW070 SCT150
     FM272200 14008KT P6SM VCTS SCT070CB BKN120
     FM280300 20010KT P6SM SCT080 BKN150
     FM280800 21008KT P6SM FEW100 SCT200=

USA.gov is the U.S. government's official web portal to all federal, state and local government web resources and services.